sensor_id;sensor_type;location;lat;lon;timestamp;temperature;humidity
16976;DHT22;8604;48.148;-1.786;2023-12-22T00:00:59;11.10;99.90
16976;DHT22;8604;48.148;-1.786;2023-12-22T00:03:28;11.10;99.90
16976;DHT22;8604;48.148;-1.786;2023-12-22T00:05:56;11.10;99.90
16976;DHT22;8604;48.148;-1.786;2023-12-22T00:08:25;11.10;99.90
16976;DHT22;8604;48.148;-1.786;2023-12-22T00:10:54;11.10;99.90
16976;DHT22;8604;48.148;-1.786;2023-12-22T00:13:23;11.00;99.90
16976;DHT22;8604;48.148;-1.786;2023-12-22T00:15:51;11.00;99.90
16976;DHT22;8604;48.148;-1.786;2023-12-22T00:18:20;11.00;99.90
16976;DHT22;8604;48.148;-1.786;2023-12-22T00:20:48;11.00;99.90
16976;DHT22;8604;48.148;-1.786;2023-12-22T00:23:17;11.00;99.90
16976;DHT22;8604;48.148;-1.786;2023-12-22T00:25:45;11.00;99.90
16976;DHT22;8604;48.148;-1.786;2023-12-22T00:28:15;11.00;99.90
16976;DHT22;8604;48.148;-1.786;2023-12-22T00:30:43;10.90;99.90
16976;DHT22;8604;48.148;-1.786;2023-12-22T00:33:12;10.90;99.90
16976;DHT22;8604;48.148;-1.786;2023-12-22T00:35:40;11.00;99.90
16976;DHT22;8604;48.148;-1.786;2023-12-22T00:38:10;10.90;99.90
16976;DHT22;8604;48.148;-1.786;2023-12-22T00:40:38;10.90;99.90
16976;DHT22;8604;48.148;-1.786;2023-12-22T00:43:06;10.90;99.90
16976;DHT22;8604;48.148;-1.786;2023-12-22T00:45:36;10.90;99.90
16976;DHT22;8604;48.148;-1.786;2023-12-22T00:48:05;10.90;99.90
16976;DHT22;8604;48.148;-1.786;2023-12-22T00:50:33;10.90;99.90
16976;DHT22;8604;48.148;-1.786;2023-12-22T00:53:02;10.80;99.90
16976;DHT22;8604;48.148;-1.786;2023-12-22T00:55:30;10.80;99.90
16976;DHT22;8604;48.148;-1.786;2023-12-22T00:57:58;10.90;99.90
16976;DHT22;8604;48.148;-1.786;2023-12-22T01:00:27;10.90;99.90
16976;DHT22;8604;48.148;-1.786;2023-12-22T01:02:57;11.00;99.90
16976;DHT22;8604;48.148;-1.786;2023-12-22T01:05:25;11.00;99.90
16976;DHT22;8604;48.148;-1.786;2023-12-22T01:07:54;11.00;99.90
16976;DHT22;8604;48.148;-1.786;2023-12-22T01:10:22;11.00;99.90
16976;DHT22;8604;48.148;-1.786;2023-12-22T01:12:50;11.10;99.90
16976;DHT22;8604;48.148;-1.786;2023-12-22T01:15:19;11.10;99.90
16976;DHT22;8604;48.148;-1.786;2023-12-22T01:17:47;11.10;99.90
16976;DHT22;8604;48.148;-1.786;2023-12-22T01:20:17;11.10;99.90
16976;DHT22;8604;48.148;-1.786;2023-12-22T01:22:46;11.10;99.90
16976;DHT22;8604;48.148;-1.786;2023-12-22T01:25:14;11.10;99.90
16976;DHT22;8604;48.148;-1.786;2023-12-22T01:27:42;11.10;99.90
16976;DHT22;8604;48.148;-1.786;2023-12-22T01:30:11;11.10;99.90
16976;DHT22;8604;48.148;-1.786;2023-12-22T01:32:39;11.10;99.90
16976;DHT22;8604;48.148;-1.786;2023-12-22T01:35:08;11.10;99.90
16976;DHT22;8604;48.148;-1.786;2023-12-22T01:37:39;11.10;99.90
16976;DHT22;8604;48.148;-1.786;2023-12-22T01:40:08;11.10;99.90
16976;DHT22;8604;48.148;-1.786;2023-12-22T01:42:36;11.00;99.90
16976;DHT22;8604;48.148;-1.786;2023-12-22T01:45:07;11.00;99.90
16976;DHT22;8604;48.148;-1.786;2023-12-22T01:47:36;11.00;99.90
16976;DHT22;8604;48.148;-1.786;2023-12-22T01:50:05;11.00;99.90
16976;DHT22;8604;48.148;-1.786;2023-12-22T01:52:34;11.00;99.90
16976;DHT22;8604;48.148;-1.786;2023-12-22T01:55:05;10.90;99.90
16976;DHT22;8604;48.148;-1.786;2023-12-22T01:57:34;11.00;99.90
16976;DHT22;8604;48.148;-1.786;2023-12-22T02:00:03;11.00;99.90
16976;DHT22;8604;48.148;-1.786;2023-12-22T02:02:38;11.00;99.90
16976;DHT22;8604;48.148;-1.786;2023-12-22T02:05:09;11.00;99.90
16976;DHT22;8604;48.148;-1.786;2023-12-22T02:07:41;11.00;99.90
16976;DHT22;8604;48.148;-1.786;2023-12-22T02:10:11;11.00;99.90
16976;DHT22;8604;48.148;-1.786;2023-12-22T02:12:39;11.00;99.90
16976;DHT22;8604;48.148;-1.786;2023-12-22T02:15:08;11.00;99.90
16976;DHT22;8604;48.148;-1.786;2023-12-22T02:17:44;11.00;99.90
16976;DHT22;8604;48.148;-1.786;2023-12-22T02:20:16;11.00;99.90
16976;DHT22;8604;48.148;-1.786;2023-12-22T02:22:51;11.00;99.90
16976;DHT22;8604;48.148;-1.786;2023-12-22T02:25:19;11.00;99.90
16976;DHT22;8604;48.148;-1.786;2023-12-22T02:27:49;11.00;99.90
16976;DHT22;8604;48.148;-1.786;2023-12-22T02:30:24;11.00;99.90
16976;DHT22;8604;48.148;-1.786;2023-12-22T02:32:57;11.00;99.90
16976;DHT22;8604;48.148;-1.786;2023-12-22T02:35:29;11.00;99.90
16976;DHT22;8604;48.148;-1.786;2023-12-22T02:38:02;11.00;99.90
16976;DHT22;8604;48.148;-1.786;2023-12-22T02:40:32;11.00;99.90
16976;DHT22;8604;48.148;-1.786;2023-12-22T02:43:02;11.10;99.90
16976;DHT22;8604;48.148;-1.786;2023-12-22T02:45:31;11.10;99.90
16976;DHT22;8604;48.148;-1.786;2023-12-22T02:47:59;11.10;99.90
16976;DHT22;8604;48.148;-1.786;2023-12-22T02:50:28;11.10;99.90
16976;DHT22;8604;48.148;-1.786;2023-12-22T02:52:56;11.10;99.90
16976;DHT22;8604;48.148;-1.786;2023-12-22T02:55:26;11.10;99.90
16976;DHT22;8604;48.148;-1.786;2023-12-22T02:57:54;11.10;99.90
16976;DHT22;8604;48.148;-1.786;2023-12-22T03:00:23;11.10;99.90
16976;DHT22;8604;48.148;-1.786;2023-12-22T03:02:51;11.10;99.90
16976;DHT22;8604;48.148;-1.786;2023-12-22T03:05:20;11.10;99.90
16976;DHT22;8604;48.148;-1.786;2023-12-22T03:07:48;11.10;99.90
16976;DHT22;8604;48.148;-1.786;2023-12-22T03:10:17;11.10;99.90
16976;DHT22;8604;48.148;-1.786;2023-12-22T03:12:47;11.10;99.90
16976;DHT22;8604;48.148;-1.786;2023-12-22T03:15:16;11.10;99.90
16976;DHT22;8604;48.148;-1.786;2023-12-22T03:17:44;11.10;99.90
16976;DHT22;8604;48.148;-1.786;2023-12-22T03:20:12;11.00;99.90
16976;DHT22;8604;48.148;-1.786;2023-12-22T03:22:40;11.00;99.90
16976;DHT22;8604;48.148;-1.786;2023-12-22T03:25:09;11.00;99.90
16976;DHT22;8604;48.148;-1.786;2023-12-22T03:27:37;11.00;99.90
16976;DHT22;8604;48.148;-1.786;2023-12-22T03:30:08;11.00;99.90
16976;DHT22;8604;48.148;-1.786;2023-12-22T03:32:36;10.90;99.90
16976;DHT22;8604;48.148;-1.786;2023-12-22T03:35:05;11.00;99.90
16976;DHT22;8604;48.148;-1.786;2023-12-22T03:37:34;10.90;99.90
16976;DHT22;8604;48.148;-1.786;2023-12-22T03:40:03;10.90;99.90
16976;DHT22;8604;48.148;-1.786;2023-12-22T03:42:32;10.90;99.90
16976;DHT22;8604;48.148;-1.786;2023-12-22T03:45:00;10.90;99.90
16976;DHT22;8604;48.148;-1.786;2023-12-22T03:47:30;10.90;99.90
16976;DHT22;8604;48.148;-1.786;2023-12-22T03:49:58;10.90;99.90
16976;DHT22;8604;48.148;-1.786;2023-12-22T03:52:27;10.90;99.90
16976;DHT22;8604;48.148;-1.786;2023-12-22T03:54:55;10.90;99.90
16976;DHT22;8604;48.148;-1.786;2023-12-22T03:57:24;10.90;99.90
16976;DHT22;8604;48.148;-1.786;2023-12-22T03:59:52;10.90;99.90
16976;DHT22;8604;48.148;-1.786;2023-12-22T04:02:21;10.90;99.90
16976;DHT22;8604;48.148;-1.786;2023-12-22T04:04:52;10.90;99.90
16976;DHT22;8604;48.148;-1.786;2023-12-22T04:07:22;10.90;99.90
16976;DHT22;8604;48.148;-1.786;2023-12-22T04:09:53;10.90;99.90
16976;DHT22;8604;48.148;-1.786;2023-12-22T04:12:21;10.90;99.90
16976;DHT22;8604;48.148;-1.786;2023-12-22T04:14:50;10.90;99.90
16976;DHT22;8604;48.148;-1.786;2023-12-22T04:17:18;10.90;99.90
16976;DHT22;8604;48.148;-1.786;2023-12-22T04:19:47;10.90;99.90
16976;DHT22;8604;48.148;-1.786;2023-12-22T04:22:17;10.90;99.90
16976;DHT22;8604;48.148;-1.786;2023-12-22T04:24:46;10.90;99.90
16976;DHT22;8604;48.148;-1.786;2023-12-22T04:27:14;10.90;99.90
16976;DHT22;8604;48.148;-1.786;2023-12-22T04:29:42;10.90;99.90
16976;DHT22;8604;48.148;-1.786;2023-12-22T04:32:11;10.90;99.90
16976;DHT22;8604;48.148;-1.786;2023-12-22T04:34:39;10.90;99.90
16976;DHT22;8604;48.148;-1.786;2023-12-22T04:37:07;10.90;99.90
16976;DHT22;8604;48.148;-1.786;2023-12-22T04:39:37;10.90;99.90
16976;DHT22;8604;48.148;-1.786;2023-12-22T04:42:05;10.80;99.90
16976;DHT22;8604;48.148;-1.786;2023-12-22T04:44:33;10.80;99.90
16976;DHT22;8604;48.148;-1.786;2023-12-22T04:47:02;10.80;99.90
16976;DHT22;8604;48.148;-1.786;2023-12-22T04:49:31;10.80;99.90
16976;DHT22;8604;48.148;-1.786;2023-12-22T04:51:59;10.90;99.90
16976;DHT22;8604;48.148;-1.786;2023-12-22T04:54:28;10.90;99.90
16976;DHT22;8604;48.148;-1.786;2023-12-22T04:56:58;10.80;99.90
16976;DHT22;8604;48.148;-1.786;2023-12-22T04:59:27;10.80;99.90
16976;DHT22;8604;48.148;-1.786;2023-12-22T05:01:55;10.90;99.90
16976;DHT22;8604;48.148;-1.786;2023-12-22T05:04:24;10.90;99.90
16976;DHT22;8604;48.148;-1.786;2023-12-22T05:06:52;10.90;99.90
16976;DHT22;8604;48.148;-1.786;2023-12-22T05:09:20;10.90;99.90
16976;DHT22;8604;48.148;-1.786;2023-12-22T05:11:51;10.90;99.90
16976;DHT22;8604;48.148;-1.786;2023-12-22T05:14:21;10.90;99.90
16976;DHT22;8604;48.148;-1.786;2023-12-22T05:16:49;10.90;99.90
16976;DHT22;8604;48.148;-1.786;2023-12-22T05:19:22;10.90;99.90
16976;DHT22;8604;48.148;-1.786;2023-12-22T05:21:50;10.90;99.90
16976;DHT22;8604;48.148;-1.786;2023-12-22T05:24:22;10.90;99.90
16976;DHT22;8604;48.148;-1.786;2023-12-22T05:26:52;10.80;99.90
16976;DHT22;8604;48.148;-1.786;2023-12-22T05:29:22;10.80;99.90
16976;DHT22;8604;48.148;-1.786;2023-12-22T05:31:50;10.90;99.90
16976;DHT22;8604;48.148;-1.786;2023-12-22T05:34:18;10.80;99.90
16976;DHT22;8604;48.148;-1.786;2023-12-22T05:36:47;10.80;99.90
16976;DHT22;8604;48.148;-1.786;2023-12-22T05:39:15;10.80;99.90
16976;DHT22;8604;48.148;-1.786;2023-12-22T05:41:44;10.80;99.90
16976;DHT22;8604;48.148;-1.786;2023-12-22T05:44:12;10.80;99.90
16976;DHT22;8604;48.148;-1.786;2023-12-22T05:46:42;10.80;99.90
16976;DHT22;8604;48.148;-1.786;2023-12-22T05:49:10;10.80;99.90
16976;DHT22;8604;48.148;-1.786;2023-12-22T05:51:39;10.80;99.90
16976;DHT22;8604;48.148;-1.786;2023-12-22T05:54:09;10.80;99.90
16976;DHT22;8604;48.148;-1.786;2023-12-22T05:56:37;10.90;99.90
16976;DHT22;8604;48.148;-1.786;2023-12-22T05:59:06;10.80;99.90
16976;DHT22;8604;48.148;-1.786;2023-12-22T06:01:34;10.80;99.90
16976;DHT22;8604;48.148;-1.786;2023-12-22T06:04:05;10.80;99.90
16976;DHT22;8604;48.148;-1.786;2023-12-22T06:06:33;10.80;99.90
16976;DHT22;8604;48.148;-1.786;2023-12-22T06:09:02;10.90;99.90
16976;DHT22;8604;48.148;-1.786;2023-12-22T06:11:30;10.90;99.90
16976;DHT22;8604;48.148;-1.786;2023-12-22T06:13:58;10.80;99.90
16976;DHT22;8604;48.148;-1.786;2023-12-22T06:16:27;10.80;99.90
16976;DHT22;8604;48.148;-1.786;2023-12-22T06:18:55;10.80;99.90
16976;DHT22;8604;48.148;-1.786;2023-12-22T06:21:25;10.80;99.90
16976;DHT22;8604;48.148;-1.786;2023-12-22T06:23:54;10.80;99.90
16976;DHT22;8604;48.148;-1.786;2023-12-22T06:26:22;10.70;99.90
16976;DHT22;8604;48.148;-1.786;2023-12-22T06:28:51;10.70;99.90
16976;DHT22;8604;48.148;-1.786;2023-12-22T06:31:20;10.70;99.90
16976;DHT22;8604;48.148;-1.786;2023-12-22T06:33:50;10.70;99.90
16976;DHT22;8604;48.148;-1.786;2023-12-22T06:36:20;10.70;99.90
16976;DHT22;8604;48.148;-1.786;2023-12-22T06:38:49;10.70;99.90
16976;DHT22;8604;48.148;-1.786;2023-12-22T06:41:20;10.70;99.90
16976;DHT22;8604;48.148;-1.786;2023-12-22T06:43:54;10.70;99.90
16976;DHT22;8604;48.148;-1.786;2023-12-22T06:50:32;10.70;99.90
16976;DHT22;8604;48.148;-1.786;2023-12-22T06:53:00;10.70;99.90
16976;DHT22;8604;48.148;-1.786;2023-12-22T06:56:41;10.60;99.90
16976;DHT22;8604;48.148;-1.786;2023-12-22T06:59:43;10.60;99.90
16976;DHT22;8604;48.148;-1.786;2023-12-22T07:02:42;10.60;99.90
16976;DHT22;8604;48.148;-1.786;2023-12-22T07:05:32;10.60;99.90
16976;DHT22;8604;48.148;-1.786;2023-12-22T07:08:10;10.60;99.90
16976;DHT22;8604;48.148;-1.786;2023-12-22T07:11:07;10.60;99.90
16976;DHT22;8604;48.148;-1.786;2023-12-22T07:14:02;10.60;99.90
16976;DHT22;8604;48.148;-1.786;2023-12-22T07:17:00;10.60;99.90
16976;DHT22;8604;48.148;-1.786;2023-12-22T07:19:54;10.60;99.90
16976;DHT22;8604;48.148;-1.786;2023-12-22T07:22:28;10.60;99.90
16976;DHT22;8604;48.148;-1.786;2023-12-22T07:25:39;10.60;99.90
16976;DHT22;8604;48.148;-1.786;2023-12-22T07:28:48;10.50;99.90
16976;DHT22;8604;48.148;-1.786;2023-12-22T07:31:49;10.60;99.90
16976;DHT22;8604;48.148;-1.786;2023-12-22T07:34:37;10.50;99.90
16976;DHT22;8604;48.148;-1.786;2023-12-22T07:37:15;10.50;99.90
16976;DHT22;8604;48.148;-1.786;2023-12-22T07:39:44;10.50;99.90
16976;DHT22;8604;48.148;-1.786;2023-12-22T07:42:37;10.50;99.90
16976;DHT22;8604;48.148;-1.786;2023-12-22T07:45:28;10.60;99.90
16976;DHT22;8604;48.148;-1.786;2023-12-22T07:48:06;10.60;99.90
16976;DHT22;8604;48.148;-1.786;2023-12-22T07:50:35;10.50;99.90
16976;DHT22;8604;48.148;-1.786;2023-12-22T07:53:04;10.50;99.90
16976;DHT22;8604;48.148;-1.786;2023-12-22T07:55:35;10.50;99.90
16976;DHT22;8604;48.148;-1.786;2023-12-22T07:58:06;10.50;99.90
16976;DHT22;8604;48.148;-1.786;2023-12-22T08:00:34;10.50;99.90
16976;DHT22;8604;48.148;-1.786;2023-12-22T08:03:03;10.50;99.90
16976;DHT22;8604;48.148;-1.786;2023-12-22T08:05:34;10.50;99.90
16976;DHT22;8604;48.148;-1.786;2023-12-22T08:08:03;10.50;99.90
16976;DHT22;8604;48.148;-1.786;2023-12-22T08:11:24;10.50;99.90
16976;DHT22;8604;48.148;-1.786;2023-12-22T08:13:53;10.50;99.90
16976;DHT22;8604;48.148;-1.786;2023-12-22T08:16:39;10.50;99.90
16976;DHT22;8604;48.148;-1.786;2023-12-22T08:19:08;10.50;99.90
16976;DHT22;8604;48.148;-1.786;2023-12-22T08:21:38;10.50;99.90
16976;DHT22;8604;48.148;-1.786;2023-12-22T08:24:57;10.50;99.90
16976;DHT22;8604;48.148;-1.786;2023-12-22T08:27:26;10.50;99.90
16976;DHT22;8604;48.148;-1.786;2023-12-22T08:29:55;10.50;99.90
16976;DHT22;8604;48.148;-1.786;2023-12-22T08:32:24;10.40;99.90
16976;DHT22;8604;48.148;-1.786;2023-12-22T08:34:52;10.50;99.90
16976;DHT22;8604;48.148;-1.786;2023-12-22T08:37:47;10.50;99.90
16976;DHT22;8604;48.148;-1.786;2023-12-22T08:40:16;10.50;99.90
16976;DHT22;8604;48.148;-1.786;2023-12-22T08:42:45;10.50;99.90
16976;DHT22;8604;48.148;-1.786;2023-12-22T08:45:18;10.50;99.90
16976;DHT22;8604;48.148;-1.786;2023-12-22T08:47:46;10.50;99.90
16976;DHT22;8604;48.148;-1.786;2023-12-22T08:50:17;10.50;99.90
16976;DHT22;8604;48.148;-1.786;2023-12-22T08:56:08;10.50;99.90
16976;DHT22;8604;48.148;-1.786;2023-12-22T08:58:37;10.50;99.90
16976;DHT22;8604;48.148;-1.786;2023-12-22T09:01:14;10.50;99.90
16976;DHT22;8604;48.148;-1.786;2023-12-22T09:03:56;10.50;99.90
16976;DHT22;8604;48.148;-1.786;2023-12-22T09:06:48;10.60;99.90
16976;DHT22;8604;48.148;-1.786;2023-12-22T09:25:30;10.60;99.90
16976;DHT22;8604;48.148;-1.786;2023-12-22T09:27:59;10.70;99.90
16976;DHT22;8604;48.148;-1.786;2023-12-22T09:30:28;10.70;99.90
16976;DHT22;8604;48.148;-1.786;2023-12-22T09:32:56;10.70;99.90
16976;DHT22;8604;48.148;-1.786;2023-12-22T09:35:25;10.70;99.90
16976;DHT22;8604;48.148;-1.786;2023-12-22T09:37:58;10.80;99.90
16976;DHT22;8604;48.148;-1.786;2023-12-22T09:40:27;10.80;99.90
16976;DHT22;8604;48.148;-1.786;2023-12-22T09:42:59;10.80;99.90
16976;DHT22;8604;48.148;-1.786;2023-12-22T09:45:30;10.80;99.90
16976;DHT22;8604;48.148;-1.786;2023-12-22T09:48:08;10.80;99.90
16976;DHT22;8604;48.148;-1.786;2023-12-22T09:50:41;10.80;99.90
16976;DHT22;8604;48.148;-1.786;2023-12-22T09:53:13;10.80;99.90
16976;DHT22;8604;48.148;-1.786;2023-12-22T09:55:44;10.80;99.90
16976;DHT22;8604;48.148;-1.786;2023-12-22T09:58:17;10.80;99.90
16976;DHT22;8604;48.148;-1.786;2023-12-22T10:00:50;10.90;99.90
16976;DHT22;8604;48.148;-1.786;2023-12-22T10:03:24;10.90;99.90
16976;DHT22;8604;48.148;-1.786;2023-12-22T10:05:54;11.00;99.90
16976;DHT22;8604;48.148;-1.786;2023-12-22T10:08:25;11.00;99.90
16976;DHT22;8604;48.148;-1.786;2023-12-22T10:11:22;11.10;99.90
16976;DHT22;8604;48.148;-1.786;2023-12-22T10:13:53;11.20;99.90
16976;DHT22;8604;48.148;-1.786;2023-12-22T10:16:23;11.10;99.90
16976;DHT22;8604;48.148;-1.786;2023-12-22T10:18:52;11.10;99.90
16976;DHT22;8604;48.148;-1.786;2023-12-22T10:21:22;11.10;99.90
16976;DHT22;8604;48.148;-1.786;2023-12-22T10:23:51;11.10;99.90
16976;DHT22;8604;48.148;-1.786;2023-12-22T10:26:26;11.10;99.90
16976;DHT22;8604;48.148;-1.786;2023-12-22T10:29:43;11.00;99.90
16976;DHT22;8604;48.148;-1.786;2023-12-22T10:32:12;11.10;99.90
16976;DHT22;8604;48.148;-1.786;2023-12-22T10:34:44;11.10;99.90
16976;DHT22;8604;48.148;-1.786;2023-12-22T10:37:27;11.10;99.90
16976;DHT22;8604;48.148;-1.786;2023-12-22T10:39:56;11.10;99.90
16976;DHT22;8604;48.148;-1.786;2023-12-22T10:42:27;11.20;99.90
16976;DHT22;8604;48.148;-1.786;2023-12-22T10:45:00;11.20;99.90
16976;DHT22;8604;48.148;-1.786;2023-12-22T10:47:29;11.20;99.90
16976;DHT22;8604;48.148;-1.786;2023-12-22T10:50:01;11.20;99.90
16976;DHT22;8604;48.148;-1.786;2023-12-22T10:52:37;11.30;99.90
16976;DHT22;8604;48.148;-1.786;2023-12-22T10:55:07;11.30;99.90
16976;DHT22;8604;48.148;-1.786;2023-12-22T10:57:36;11.30;99.90
16976;DHT22;8604;48.148;-1.786;2023-12-22T11:00:09;11.40;99.90
16976;DHT22;8604;48.148;-1.786;2023-12-22T11:02:46;11.40;99.90
16976;DHT22;8604;48.148;-1.786;2023-12-22T11:05:15;11.50;99.90
16976;DHT22;8604;48.148;-1.786;2023-12-22T11:07:49;11.40;99.90
16976;DHT22;8604;48.148;-1.786;2023-12-22T11:10:31;11.40;99.90
16976;DHT22;8604;48.148;-1.786;2023-12-22T11:13:01;11.40;99.90
16976;DHT22;8604;48.148;-1.786;2023-12-22T11:15:32;11.40;99.90
16976;DHT22;8604;48.148;-1.786;2023-12-22T11:18:04;11.40;99.90
16976;DHT22;8604;48.148;-1.786;2023-12-22T11:20:35;11.40;99.90
16976;DHT22;8604;48.148;-1.786;2023-12-22T11:23:04;11.40;99.90
16976;DHT22;8604;48.148;-1.786;2023-12-22T11:25:48;11.40;99.90
16976;DHT22;8604;48.148;-1.786;2023-12-22T11:28:36;11.40;99.90
16976;DHT22;8604;48.148;-1.786;2023-12-22T11:31:10;11.50;99.90
16976;DHT22;8604;48.148;-1.786;2023-12-22T11:33:52;11.50;99.90
16976;DHT22;8604;48.148;-1.786;2023-12-22T11:36:36;11.60;99.90
16976;DHT22;8604;48.148;-1.786;2023-12-22T11:39:09;11.60;99.90
16976;DHT22;8604;48.148;-1.786;2023-12-22T11:41:39;11.60;99.90
16976;DHT22;8604;48.148;-1.786;2023-12-22T11:44:15;11.60;99.90
16976;DHT22;8604;48.148;-1.786;2023-12-22T11:46:46;11.60;99.90
16976;DHT22;8604;48.148;-1.786;2023-12-22T11:49:19;11.60;99.90
16976;DHT22;8604;48.148;-1.786;2023-12-22T11:52:11;11.60;99.90
16976;DHT22;8604;48.148;-1.786;2023-12-22T11:54:49;11.60;99.90
16976;DHT22;8604;48.148;-1.786;2023-12-22T11:57:32;11.60;99.90
16976;DHT22;8604;48.148;-1.786;2023-12-22T12:00:07;11.60;99.90
16976;DHT22;8604;48.148;-1.786;2023-12-22T12:02:41;11.60;99.90
16976;DHT22;8604;48.148;-1.786;2023-12-22T12:05:11;11.70;99.90
16976;DHT22;8604;48.148;-1.786;2023-12-22T12:07:43;11.70;99.90
16976;DHT22;8604;48.148;-1.786;2023-12-22T12:10:21;11.70;99.90
16976;DHT22;8604;48.148;-1.786;2023-12-22T12:13:06;11.70;99.90
16976;DHT22;8604;48.148;-1.786;2023-12-22T12:15:35;11.60;99.90
16976;DHT22;8604;48.148;-1.786;2023-12-22T12:18:05;11.60;99.90
16976;DHT22;8604;48.148;-1.786;2023-12-22T12:20:34;11.50;99.90
16976;DHT22;8604;48.148;-1.786;2023-12-22T12:23:07;11.50;99.90
16976;DHT22;8604;48.148;-1.786;2023-12-22T12:25:36;11.40;99.90
16976;DHT22;8604;48.148;-1.786;2023-12-22T12:28:07;11.40;99.90
16976;DHT22;8604;48.148;-1.786;2023-12-22T12:30:37;11.40;99.90
16976;DHT22;8604;48.148;-1.786;2023-12-22T12:33:09;11.50;99.90
16976;DHT22;8604;48.148;-1.786;2023-12-22T12:35:39;11.50;99.90
16976;DHT22;8604;48.148;-1.786;2023-12-22T12:38:17;11.50;99.90
16976;DHT22;8604;48.148;-1.786;2023-12-22T12:40:50;11.50;99.90
16976;DHT22;8604;48.148;-1.786;2023-12-22T12:43:19;11.50;99.90
16976;DHT22;8604;48.148;-1.786;2023-12-22T12:45:48;11.50;99.90
16976;DHT22;8604;48.148;-1.786;2023-12-22T12:48:18;11.50;99.90
16976;DHT22;8604;48.148;-1.786;2023-12-22T12:50:49;11.50;99.90
16976;DHT22;8604;48.148;-1.786;2023-12-22T12:53:18;11.50;99.90
16976;DHT22;8604;48.148;-1.786;2023-12-22T12:55:48;11.50;99.90
16976;DHT22;8604;48.148;-1.786;2023-12-22T12:58:17;11.50;99.90
16976;DHT22;8604;48.148;-1.786;2023-12-22T13:00:46;11.50;99.90
16976;DHT22;8604;48.148;-1.786;2023-12-22T13:03:14;11.50;99.90
16976;DHT22;8604;48.148;-1.786;2023-12-22T13:05:45;11.50;99.90
16976;DHT22;8604;48.148;-1.786;2023-12-22T13:08:13;11.50;99.90
16976;DHT22;8604;48.148;-1.786;2023-12-22T13:10:42;11.50;99.90
16976;DHT22;8604;48.148;-1.786;2023-12-22T13:13:11;11.50;99.90
16976;DHT22;8604;48.148;-1.786;2023-12-22T13:15:40;11.50;99.90
16976;DHT22;8604;48.148;-1.786;2023-12-22T13:18:09;11.50;99.90
16976;DHT22;8604;48.148;-1.786;2023-12-22T13:20:39;11.60;99.90
16976;DHT22;8604;48.148;-1.786;2023-12-22T13:23:09;11.60;99.90
16976;DHT22;8604;48.148;-1.786;2023-12-22T13:25:39;11.50;99.90
16976;DHT22;8604;48.148;-1.786;2023-12-22T13:29:15;11.60;99.90
16976;DHT22;8604;48.148;-1.786;2023-12-22T13:31:44;11.60;99.90
16976;DHT22;8604;48.148;-1.786;2023-12-22T13:34:15;11.60;99.90
16976;DHT22;8604;48.148;-1.786;2023-12-22T13:36:45;11.60;99.90
16976;DHT22;8604;48.148;-1.786;2023-12-22T13:39:15;11.70;99.90
16976;DHT22;8604;48.148;-1.786;2023-12-22T13:41:44;11.70;99.90
16976;DHT22;8604;48.148;-1.786;2023-12-22T13:44:13;11.70;99.90
16976;DHT22;8604;48.148;-1.786;2023-12-22T13:46:42;11.70;99.90
16976;DHT22;8604;48.148;-1.786;2023-12-22T13:49:13;11.70;99.90
16976;DHT22;8604;48.148;-1.786;2023-12-22T13:51:43;11.60;99.90
16976;DHT22;8604;48.148;-1.786;2023-12-22T13:54:12;11.60;99.90
16976;DHT22;8604;48.148;-1.786;2023-12-22T13:56:42;11.60;99.90
16976;DHT22;8604;48.148;-1.786;2023-12-22T13:59:13;11.60;99.90
16976;DHT22;8604;48.148;-1.786;2023-12-22T14:01:45;11.60;99.90
16976;DHT22;8604;48.148;-1.786;2023-12-22T14:04:14;11.60;99.90
16976;DHT22;8604;48.148;-1.786;2023-12-22T14:06:42;11.60;99.90
16976;DHT22;8604;48.148;-1.786;2023-12-22T14:09:11;11.50;99.90
16976;DHT22;8604;48.148;-1.786;2023-12-22T14:11:39;11.50;99.90
16976;DHT22;8604;48.148;-1.786;2023-12-22T14:14:21;11.50;99.90
16976;DHT22;8604;48.148;-1.786;2023-12-22T14:16:50;11.40;99.90
16976;DHT22;8604;48.148;-1.786;2023-12-22T14:19:18;11.40;99.90
16976;DHT22;8604;48.148;-1.786;2023-12-22T14:21:47;11.40;99.90
16976;DHT22;8604;48.148;-1.786;2023-12-22T14:24:15;11.40;99.90
16976;DHT22;8604;48.148;-1.786;2023-12-22T14:26:52;11.40;99.90
16976;DHT22;8604;48.148;-1.786;2023-12-22T14:29:23;11.40;99.90
16976;DHT22;8604;48.148;-1.786;2023-12-22T14:31:51;11.40;99.90
16976;DHT22;8604;48.148;-1.786;2023-12-22T14:34:20;11.30;99.90
16976;DHT22;8604;48.148;-1.786;2023-12-22T14:36:49;11.30;99.90
16976;DHT22;8604;48.148;-1.786;2023-12-22T14:39:17;11.30;99.90
16976;DHT22;8604;48.148;-1.786;2023-12-22T14:41:46;11.30;99.90
16976;DHT22;8604;48.148;-1.786;2023-12-22T14:44:14;11.20;99.90
16976;DHT22;8604;48.148;-1.786;2023-12-22T14:46:44;11.20;99.90
16976;DHT22;8604;48.148;-1.786;2023-12-22T14:49:13;11.20;99.90
16976;DHT22;8604;48.148;-1.786;2023-12-22T14:51:43;11.20;99.90
16976;DHT22;8604;48.148;-1.786;2023-12-22T14:54:14;11.20;99.90
16976;DHT22;8604;48.148;-1.786;2023-12-22T14:56:42;11.10;99.90
16976;DHT22;8604;48.148;-1.786;2023-12-22T14:59:11;11.20;99.90
16976;DHT22;8604;48.148;-1.786;2023-12-22T15:01:41;11.10;99.90
16976;DHT22;8604;48.148;-1.786;2023-12-22T15:04:13;11.10;99.90
16976;DHT22;8604;48.148;-1.786;2023-12-22T15:06:42;11.00;99.90
16976;DHT22;8604;48.148;-1.786;2023-12-22T15:09:12;11.00;99.90
16976;DHT22;8604;48.148;-1.786;2023-12-22T15:11:41;10.90;99.90
16976;DHT22;8604;48.148;-1.786;2023-12-22T15:14:11;10.90;99.90
16976;DHT22;8604;48.148;-1.786;2023-12-22T15:16:40;10.90;99.90
16976;DHT22;8604;48.148;-1.786;2023-12-22T15:19:13;10.90;99.90
16976;DHT22;8604;48.148;-1.786;2023-12-22T15:21:42;10.90;99.90
16976;DHT22;8604;48.148;-1.786;2023-12-22T15:24:11;10.90;99.90
16976;DHT22;8604;48.148;-1.786;2023-12-22T15:26:39;10.90;99.90
16976;DHT22;8604;48.148;-1.786;2023-12-22T15:29:09;10.90;99.90
16976;DHT22;8604;48.148;-1.786;2023-12-22T15:31:38;10.90;99.90
16976;DHT22;8604;48.148;-1.786;2023-12-22T15:34:06;10.80;99.90
16976;DHT22;8604;48.148;-1.786;2023-12-22T15:36:37;10.80;99.90
16976;DHT22;8604;48.148;-1.786;2023-12-22T15:39:05;10.70;99.90
16976;DHT22;8604;48.148;-1.786;2023-12-22T15:41:34;10.70;99.90
16976;DHT22;8604;48.148;-1.786;2023-12-22T15:44:02;10.60;99.90
16976;DHT22;8604;48.148;-1.786;2023-12-22T15:46:31;10.60;99.90
16976;DHT22;8604;48.148;-1.786;2023-12-22T15:48:59;10.60;99.90
16976;DHT22;8604;48.148;-1.786;2023-12-22T15:51:28;10.50;99.90
16976;DHT22;8604;48.148;-1.786;2023-12-22T15:53:58;10.50;99.90
16976;DHT22;8604;48.148;-1.786;2023-12-22T15:56:27;10.40;99.90
16976;DHT22;8604;48.148;-1.786;2023-12-22T15:58:56;10.40;99.90
16976;DHT22;8604;48.148;-1.786;2023-12-22T16:01:25;10.40;99.90
16976;DHT22;8604;48.148;-1.786;2023-12-22T16:03:54;10.40;99.90
16976;DHT22;8604;48.148;-1.786;2023-12-22T16:06:22;10.40;99.90
16976;DHT22;8604;48.148;-1.786;2023-12-22T16:08:51;10.40;99.90
16976;DHT22;8604;48.148;-1.786;2023-12-22T16:11:21;10.40;99.90
16976;DHT22;8604;48.148;-1.786;2023-12-22T16:13:49;10.40;99.90
16976;DHT22;8604;48.148;-1.786;2023-12-22T16:16:19;10.40;99.90
16976;DHT22;8604;48.148;-1.786;2023-12-22T16:18:47;10.40;99.90
16976;DHT22;8604;48.148;-1.786;2023-12-22T16:21:16;10.40;99.90
16976;DHT22;8604;48.148;-1.786;2023-12-22T16:23:44;10.40;99.90